sensor_id;sensor_type;location;lat;lon;timestamp;pressure;altitude;pressure_sealevel;temperature;humidity
49194;BME280;35029;50.804;12.866;2023-02-13T00:01:26;99792.44;;;4.11;100.00
49194;BME280;35029;50.804;12.866;2023-02-13T00:03:51;99804.19;;;4.18;100.00
49194;BME280;35029;50.804;12.866;2023-02-13T00:06:17;99797.91;;;4.21;100.00
49194;BME280;35029;50.804;12.866;2023-02-13T00:08:42;99775.75;;;4.12;100.00
49194;BME280;35029;50.804;12.866;2023-02-13T00:11:09;99799.47;;;4.23;100.00
49194;BME280;35029;50.804;12.866;2023-02-13T00:13:34;99788.66;;;4.15;100.00
49194;BME280;35029;50.804;12.866;2023-02-13T00:16:02;99805.38;;;4.27;100.00
49194;BME280;35029;50.804;12.866;2023-02-13T00:18:31;99800.25;;;4.26;100.00
49194;BME280;35029;50.804;12.866;2023-02-13T00:21:03;99807.16;;;4.27;100.00
49194;BME280;35029;50.804;12.866;2023-02-13T00:23:30;99802.75;;;4.27;100.00
49194;BME280;35029;50.804;12.866;2023-02-13T00:25:57;99803.47;;;4.29;100.00
49194;BME280;35029;50.804;12.866;2023-02-13T00:28:24;99802.66;;;4.29;100.00
49194;BME280;35029;50.804;12.866;2023-02-13T00:30:49;99792.25;;;4.27;100.00
49194;BME280;35029;50.804;12.866;2023-02-13T00:33:15;99777.94;;;4.18;100.00
49194;BME280;35029;50.804;12.866;2023-02-13T00:35:41;99798.34;;;4.28;100.00
49194;BME280;35029;50.804;12.866;2023-02-13T00:38:06;99795.81;;;4.26;100.00
49194;BME280;35029;50.804;12.866;2023-02-13T00:40:32;99796.03;;;4.23;100.00
49194;BME280;35029;50.804;12.866;2023-02-13T00:42:59;99793.19;;;4.26;100.00
49194;BME280;35029;50.804;12.866;2023-02-13T00:45:24;99790.66;;;4.25;100.00
49194;BME280;35029;50.804;12.866;2023-02-13T00:47:50;99783.84;;;4.22;100.00
49194;BME280;35029;50.804;12.866;2023-02-13T00:50:19;99796.97;;;4.22;100.00
49194;BME280;35029;50.804;12.866;2023-02-13T00:52:44;99784.88;;;4.19;100.00
49194;BME280;35029;50.804;12.866;2023-02-13T00:55:11;99781.00;;;4.12;100.00
49194;BME280;35029;50.804;12.866;2023-02-13T00:57:37;99797.19;;;4.19;100.00
49194;BME280;35029;50.804;12.866;2023-02-13T01:00:03;99797.28;;;4.17;100.00
49194;BME280;35029;50.804;12.866;2023-02-13T01:02:28;99794.03;;;4.14;100.00
49194;BME280;35029;50.804;12.866;2023-02-13T01:04:54;99785.72;;;4.07;100.00
49194;BME280;35029;50.804;12.866;2023-02-13T01:07:20;99790.56;;;4.13;100.00
49194;BME280;35029;50.804;12.866;2023-02-13T01:09:45;99789.41;;;4.17;100.00
49194;BME280;35029;50.804;12.866;2023-02-13T01:12:11;99792.22;;;4.14;100.00
49194;BME280;35029;50.804;12.866;2023-02-13T01:14:36;99800.97;;;4.15;100.00
49194;BME280;35029;50.804;12.866;2023-02-13T01:17:02;99806.41;;;4.12;100.00
49194;BME280;35029;50.804;12.866;2023-02-13T01:19:28;99799.38;;;4.12;100.00
49194;BME280;35029;50.804;12.866;2023-02-13T01:21:53;99797.69;;;4.11;100.00
49194;BME280;35029;50.804;12.866;2023-02-13T01:24:19;99796.66;;;4.14;100.00
49194;BME280;35029;50.804;12.866;2023-02-13T01:26:44;99798.53;;;4.12;100.00
49194;BME280;35029;50.804;12.866;2023-02-13T01:29:12;99772.38;;;3.97;100.00
49194;BME280;35029;50.804;12.866;2023-02-13T01:31:38;99790.75;;;4.10;100.00
49194;BME280;35029;50.804;12.866;2023-02-13T01:34:04;99797.47;;;4.14;100.00
49194;BME280;35029;50.804;12.866;2023-02-13T01:36:29;99775.53;;;4.02;100.00
49194;BME280;35029;50.804;12.866;2023-02-13T01:38:57;99774.78;;;4.00;100.00
49194;BME280;35029;50.804;12.866;2023-02-13T01:41:25;99793.38;;;4.10;100.00
49194;BME280;35029;50.804;12.866;2023-02-13T01:43:58;99780.38;;;4.09;100.00
49194;BME280;35029;50.804;12.866;2023-02-13T01:46:46;99784.78;;;4.08;100.00
49194;BME280;35029;50.804;12.866;2023-02-13T01:49:18;99784.03;;;4.06;100.00
49194;BME280;35029;50.804;12.866;2023-02-13T01:51:46;99784.34;;;4.01;100.00
49194;BME280;35029;50.804;12.866;2023-02-13T01:54:32;99754.41;;;3.91;100.00
49194;BME280;35029;50.804;12.866;2023-02-13T01:57:08;99776.16;;;4.06;100.00
49194;BME280;35029;50.804;12.866;2023-02-13T01:59:44;99778.78;;;4.06;100.00
49194;BME280;35029;50.804;12.866;2023-02-13T02:02:11;99759.06;;;3.87;100.00
49194;BME280;35029;50.804;12.866;2023-02-13T02:04:40;99753.81;;;3.87;100.00
49194;BME280;35029;50.804;12.866;2023-02-13T02:07:24;99780.69;;;4.04;100.00
49194;BME280;35029;50.804;12.866;2023-02-13T02:09:54;99776.47;;;4.01;100.00
49194;BME280;35029;50.804;12.866;2023-02-13T02:14:49;99767.25;;;3.96;100.00
49194;BME280;35029;50.804;12.866;2023-02-13T02:17:17;99766.72;;;3.91;100.00
49194;BME280;35029;50.804;12.866;2023-02-13T02:31:37;99765.34;;;3.98;100.00
49194;BME280;35029;50.804;12.866;2023-02-13T02:39:38;99766.59;;;3.92;100.00
49194;BME280;35029;50.804;12.866;2023-02-13T02:44:39;99757.03;;;3.91;100.00
49194;BME280;35029;50.804;12.866;2023-02-13T02:47:26;99755.47;;;3.88;100.00
49194;BME280;35029;50.804;12.866;2023-02-13T02:50:36;99750.63;;;3.95;100.00
49194;BME280;35029;50.804;12.866;2023-02-13T02:53:38;99748.00;;;3.95;100.00
49194;BME280;35029;50.804;12.866;2023-02-13T02:56:14;99760.41;;;3.93;100.00
49194;BME280;35029;50.804;12.866;2023-02-13T02:58:45;99751.50;;;3.96;100.00
49194;BME280;35029;50.804;12.866;2023-02-13T03:01:33;99756.00;;;3.94;100.00
49194;BME280;35029;50.804;12.866;2023-02-13T03:04:24;99757.91;;;3.92;100.00
49194;BME280;35029;50.804;12.866;2023-02-13T03:07:12;99757.16;;;3.89;100.00
49194;BME280;35029;50.804;12.866;2023-02-13T03:09:43;99746.66;;;3.89;100.00
49194;BME280;35029;50.804;12.866;2023-02-13T03:12:50;99723.22;;;3.73;100.00
49194;BME280;35029;50.804;12.866;2023-02-13T03:15:39;99737.31;;;3.85;100.00
49194;BME280;35029;50.804;12.866;2023-02-13T03:18:26;99734.47;;;3.76;100.00
49194;BME280;35029;50.804;12.866;2023-02-13T03:21:17;99750.84;;;3.79;100.00
49194;BME280;35029;50.804;12.866;2023-02-13T03:24:10;99750.84;;;3.79;100.00
49194;BME280;35029;50.804;12.866;2023-02-13T03:27:03;99745.72;;;3.78;100.00
49194;BME280;35029;50.804;12.866;2023-02-13T03:30:02;99743.81;;;3.80;100.00
49194;BME280;35029;50.804;12.866;2023-02-13T03:38:10;99742.53;;;3.72;100.00
49194;BME280;35029;50.804;12.866;2023-02-13T03:40:48;99751.34;;;3.71;100.00
49194;BME280;35029;50.804;12.866;2023-02-13T03:43:43;99764.69;;;3.68;100.00
49194;BME280;35029;50.804;12.866;2023-02-13T03:46:12;99763.91;;;3.66;100.00
49194;BME280;35029;50.804;12.866;2023-02-13T03:48:40;99760.25;;;3.69;100.00
49194;BME280;35029;50.804;12.866;2023-02-13T03:51:31;99761.00;;;3.71;100.00
49194;BME280;35029;50.804;12.866;2023-02-13T03:54:01;99771.59;;;3.69;100.00
49194;BME280;35029;50.804;12.866;2023-02-13T03:56:31;99745.13;;;3.60;100.00
49194;BME280;35029;50.804;12.866;2023-02-13T03:59:21;99761.94;;;3.70;100.00
49194;BME280;35029;50.804;12.866;2023-02-13T04:02:12;99767.31;;;3.68;100.00
49194;BME280;35029;50.804;12.866;2023-02-13T04:04:53;99777.69;;;3.70;100.00
49194;BME280;35029;50.804;12.866;2023-02-13T04:07:23;99776.81;;;3.69;100.00
49194;BME280;35029;50.804;12.866;2023-02-13T04:10:02;99756.66;;;3.57;100.00
49194;BME280;35029;50.804;12.866;2023-02-13T04:12:41;99774.31;;;3.68;100.00
49194;BME280;35029;50.804;12.866;2023-02-13T04:15:18;99786.50;;;3.69;100.00
49194;BME280;35029;50.804;12.866;2023-02-13T04:17:53;99744.19;;;3.48;100.00
49194;BME280;35029;50.804;12.866;2023-02-13T04:20:20;99788.19;;;3.70;100.00
49194;BME280;35029;50.804;12.866;2023-02-13T04:22:47;99785.66;;;3.68;100.00
49194;BME280;35029;50.804;12.866;2023-02-13T04:25:14;99775.66;;;3.61;100.00
49194;BME280;35029;50.804;12.866;2023-02-13T04:27:41;99786.06;;;3.62;100.00
49194;BME280;35029;50.804;12.866;2023-02-13T04:30:07;99778.94;;;3.64;100.00
49194;BME280;35029;50.804;12.866;2023-02-13T04:32:33;99780.59;;;3.65;100.00
49194;BME280;35029;50.804;12.866;2023-02-13T04:34:59;99771.19;;;3.63;100.00
49194;BME280;35029;50.804;12.866;2023-02-13T04:37:25;99744.47;;;3.43;100.00
49194;BME280;35029;50.804;12.866;2023-02-13T04:39:50;99781.75;;;3.61;100.00
49194;BME280;35029;50.804;12.866;2023-02-13T04:42:16;99779.78;;;3.65;100.00
49194;BME280;35029;50.804;12.866;2023-02-13T04:44:41;99783.97;;;3.67;100.00
49194;BME280;35029;50.804;12.866;2023-02-13T04:47:07;99783.22;;;3.65;100.00
49194;BME280;35029;50.804;12.866;2023-02-13T04:49:32;99778.72;;;3.67;100.00
49194;BME280;35029;50.804;12.866;2023-02-13T04:51:58;99763.59;;;3.58;100.00
49194;BME280;35029;50.804;12.866;2023-02-13T04:54:23;99774.53;;;3.65;100.00
49194;BME280;35029;50.804;12.866;2023-02-13T04:56:49;99772.84;;;3.64;100.00
49194;BME280;35029;50.804;12.866;2023-02-13T04:59:14;99770.22;;;3.64;100.00
49194;BME280;35029;50.804;12.866;2023-02-13T05:01:40;99767.59;;;3.64;100.00
49194;BME280;35029;50.804;12.866;2023-02-13T05:04:05;99773.38;;;3.69;100.00
49194;BME280;35029;50.804;12.866;2023-02-13T05:06:31;99730.09;;;3.49;100.00
49194;BME280;35029;50.804;12.866;2023-02-13T05:08:57;99756.50;;;3.73;100.00
49194;BME280;35029;50.804;12.866;2023-02-13T05:11:22;99767.19;;;3.70;100.00
49194;BME280;35029;50.804;12.866;2023-02-13T05:13:48;99760.16;;;3.70;100.00
49194;BME280;35029;50.804;12.866;2023-02-13T05:16:13;99766.97;;;3.73;100.00
49194;BME280;35029;50.804;12.866;2023-02-13T05:18:39;99761.75;;;3.73;100.00
49194;BME280;35029;50.804;12.866;2023-02-13T05:21:04;99761.84;;;3.71;100.00
49194;BME280;35029;50.804;12.866;2023-02-13T05:23:48;99759.31;;;3.70;100.00
49194;BME280;35029;50.804;12.866;2023-02-13T05:26:14;99761.09;;;3.69;100.00
49194;BME280;35029;50.804;12.866;2023-02-13T05:28:39;99755.78;;;3.71;100.00
49194;BME280;35029;50.804;12.866;2023-02-13T05:31:24;99759.22;;;3.71;100.00
49194;BME280;35029;50.804;12.866;2023-02-13T05:33:49;99759.22;;;3.71;100.00
49194;BME280;35029;50.804;12.866;2023-02-13T05:36:15;99752.28;;;3.70;100.00
49194;BME280;35029;50.804;12.866;2023-02-13T05:38:40;99756.06;;;3.66;100.00
49194;BME280;35029;50.804;12.866;2023-02-13T05:41:06;99764.03;;;3.65;100.00
49194;BME280;35029;50.804;12.866;2023-02-13T05:43:31;99732.28;;;3.42;100.00
49194;BME280;35029;50.804;12.866;2023-02-13T05:46:08;99759.63;;;3.65;100.00
49194;BME280;35029;50.804;12.866;2023-02-13T05:48:34;99770.09;;;3.65;100.00
49194;BME280;35029;50.804;12.866;2023-02-13T05:51:00;99775.66;;;3.61;100.00
49194;BME280;35029;50.804;12.866;2023-02-13T05:53:26;99768.94;;;3.57;100.00
49194;BME280;35029;50.804;12.866;2023-02-13T05:55:54;99775.66;;;3.61;100.00
49194;BME280;35029;50.804;12.866;2023-02-13T05:58:20;99773.69;;;3.64;100.00
49194;BME280;35029;50.804;12.866;2023-02-13T06:00:46;99769.69;;;3.59;100.00
49194;BME280;35029;50.804;12.866;2023-02-13T06:03:11;99768.63;;;3.61;100.00
49194;BME280;35029;50.804;12.866;2023-02-13T06:05:37;99767.59;;;3.64;100.00
49194;BME280;35029;50.804;12.866;2023-02-13T06:08:02;99772.94;;;3.62;100.00
49194;BME280;35029;50.804;12.866;2023-02-13T06:10:28;99775.97;;;3.56;100.00
49194;BME280;35029;50.804;12.866;2023-02-13T06:12:54;99772.72;;;3.52;100.00
49194;BME280;35029;50.804;12.866;2023-02-13T06:15:19;99776.16;;;3.53;100.00
49194;BME280;35029;50.804;12.866;2023-02-13T06:17:45;99784.03;;;3.53;100.00
49194;BME280;35029;50.804;12.866;2023-02-13T06:20:10;99775.53;;;3.49;100.00
49194;BME280;35029;50.804;12.866;2023-02-13T06:22:36;99771.72;;;3.41;100.00
49194;BME280;35029;50.804;12.866;2023-02-13T06:25:02;99771.00;;;3.38;100.00
49194;BME280;35029;50.804;12.866;2023-02-13T06:27:28;99786.19;;;3.46;100.00
49194;BME280;35029;50.804;12.866;2023-02-13T06:29:53;99786.63;;;3.40;100.00
49194;BME280;35029;50.804;12.866;2023-02-13T06:32:19;99793.13;;;3.47;100.00
49194;BME280;35029;50.804;12.866;2023-02-13T06:34:44;99800.38;;;3.44;100.00
49194;BME280;35029;50.804;12.866;2023-02-13T06:37:10;99795.50;;;3.37;100.00
49194;BME280;35029;50.804;12.866;2023-02-13T06:39:35;99797.34;;;3.50;100.00
49194;BME280;35029;50.804;12.866;2023-02-13T06:42:01;99776.44;;;3.35;100.00
49194;BME280;35029;50.804;12.866;2023-02-13T06:44:26;99798.38;;;3.47;100.00
49194;BME280;35029;50.804;12.866;2023-02-13T06:46:52;99800.06;;;3.48;100.00
49194;BME280;35029;50.804;12.866;2023-02-13T06:49:18;99802.91;;;3.45;100.00
49194;BME280;35029;50.804;12.866;2023-02-13T06:51:45;99784.81;;;3.68;100.00
49194;BME280;35029;50.804;12.866;2023-02-13T06:54:10;99800.31;;;3.58;100.00
49194;BME280;35029;50.804;12.866;2023-02-13T06:56:36;99802.38;;;3.53;100.00
49194;BME280;35029;50.804;12.866;2023-02-13T06:59:01;99811.84;;;3.55;100.00
49194;BME280;35029;50.804;12.866;2023-02-13T07:01:27;99753.25;;;3.15;100.00
49194;BME280;35029;50.804;12.866;2023-02-13T07:03:52;99795.31;;;3.41;100.00
49194;BME280;35029;50.804;12.866;2023-02-13T07:06:19;99806.13;;;3.49;100.00
49194;BME280;35029;50.804;12.866;2023-02-13T07:08:44;99810.09;;;3.42;100.00
49194;BME280;35029;50.804;12.866;2023-02-13T07:11:21;99820.81;;;3.38;100.00
49194;BME280;35029;50.804;12.866;2023-02-13T07:13:47;99817.25;;;3.40;100.00
49194;BME280;35029;50.804;12.866;2023-02-13T07:16:13;99807.97;;;3.34;100.00
49194;BME280;35029;50.804;12.866;2023-02-13T07:18:38;99811.16;;;3.39;100.00
49194;BME280;35029;50.804;12.866;2023-02-13T07:21:05;99821.00;;;3.35;100.00
49194;BME280;35029;50.804;12.866;2023-02-13T07:23:39;99804.06;;;3.27;100.00
49194;BME280;35029;50.804;12.866;2023-02-13T07:26:05;99813.31;;;3.32;100.00
49194;BME280;35029;50.804;12.866;2023-02-13T07:28:31;99820.81;;;3.38;100.00
49194;BME280;35029;50.804;12.866;2023-02-13T07:30:56;99797.25;;;3.24;100.00
49194;BME280;35029;50.804;12.866;2023-02-13T07:33:22;99823.31;;;3.40;100.00
49194;BME280;35029;50.804;12.866;2023-02-13T07:35:49;99824.41;;;3.50;100.00
49194;BME280;35029;50.804;12.866;2023-02-13T07:38:16;99821.88;;;3.49;100.00
49194;BME280;35029;50.804;12.866;2023-02-13T07:40:42;99816.47;;;3.52;100.00
49194;BME280;35029;50.804;12.866;2023-02-13T07:43:08;99815.41;;;3.54;100.00
49194;BME280;35029;50.804;12.866;2023-02-13T07:45:34;99818.13;;;3.53;100.00
49194;BME280;35029;50.804;12.866;2023-02-13T07:47:59;99795.50;;;3.37;100.00
49194;BME280;35029;50.804;12.866;2023-02-13T07:50:27;99802.91;;;3.45;100.00
49194;BME280;35029;50.804;12.866;2023-02-13T07:52:58;99805.22;;;3.50;100.00
49194;BME280;35029;50.804;12.866;2023-02-13T07:55:25;99822.16;;;3.59;100.00
49194;BME280;35029;50.804;12.866;2023-02-13T07:57:51;99822.31;;;3.55;100.00
49194;BME280;35029;50.804;12.866;2023-02-13T08:00:18;99823.09;;;3.58;100.00
49194;BME280;35029;50.804;12.866;2023-02-13T08:02:44;99808.06;;;3.60;100.00
49194;BME280;35029;50.804;12.866;2023-02-13T08:05:09;99815.22;;;3.58;100.00
49194;BME280;35029;50.804;12.866;2023-02-13T08:07:35;99797.25;;;3.51;100.00
49194;BME280;35029;50.804;12.866;2023-02-13T08:10:02;99812.59;;;3.58;100.00
49194;BME280;35029;50.804;12.866;2023-02-13T08:12:46;99786.72;;;3.38;100.00
49194;BME280;35029;50.804;12.866;2023-02-13T08:15:13;99817.59;;;3.48;100.00
49194;BME280;35029;50.804;12.866;2023-02-13T08:17:40;99816.25;;;3.55;100.00
49194;BME280;35029;50.804;12.866;2023-02-13T08:20:06;99804.47;;;3.48;100.00
49194;BME280;35029;50.804;12.866;2023-02-13T08:22:36;99813.97;;;3.63;100.00
49194;BME280;35029;50.804;12.866;2023-02-13T08:25:02;99815.94;;;3.60;100.00
49194;BME280;35029;50.804;12.866;2023-02-13T08:27:29;99823.28;;;3.54;100.00
49194;BME280;35029;50.804;12.866;2023-02-13T08:29:58;99822.53;;;3.52;100.00
49194;BME280;35029;50.804;12.866;2023-02-13T08:32:24;99830.41;;;3.52;100.00
49194;BME280;35029;50.804;12.866;2023-02-13T08:34:50;99832.72;;;3.57;100.00
49194;BME280;35029;50.804;12.866;2023-02-13T08:37:16;99831.22;;;3.53;100.00
49194;BME280;35029;50.804;12.866;2023-02-13T08:39:42;99832.72;;;3.57;100.00
49194;BME280;35029;50.804;12.866;2023-02-13T08:42:07;99839.03;;;3.54;100.00
49194;BME280;35029;50.804;12.866;2023-02-13T08:44:33;99827.31;;;3.46;100.00
49194;BME280;35029;50.804;12.866;2023-02-13T08:46:59;99837.13;;;3.57;100.00
49194;BME280;35029;50.804;12.866;2023-02-13T08:49:31;99825.53;;;3.46;100.00
49194;BME280;35029;50.804;12.866;2023-02-13T08:51:59;99817.72;;;3.32;100.00
49194;BME280;35029;50.804;12.866;2023-02-13T08:54:25;99842.41;;;3.42;100.00
49194;BME280;35029;50.804;12.866;2023-02-13T08:56:52;99829.94;;;3.46;100.00
49194;BME280;35029;50.804;12.866;2023-02-13T08:59:17;99834.06;;;3.50;100.00
49194;BME280;35029;50.804;12.866;2023-02-13T09:01:43;99827.78;;;3.52;100.00
49194;BME280;35029;50.804;12.866;2023-02-13T09:04:09;99791.31;;;3.35;100.00
49194;BME280;35029;50.804;12.866;2023-02-13T09:06:34;99834.50;;;3.57;100.00
49194;BME280;35029;50.804;12.866;2023-02-13T09:09:00;99834.41;;;3.58;100.00
49194;BME280;35029;50.804;12.866;2023-02-13T09:11:25;99844.59;;;3.63;100.00
49194;BME280;35029;50.804;12.866;2023-02-13T09:13:54;99837.38;;;3.66;100.00
49194;BME280;35029;50.804;12.866;2023-02-13T09:16:20;99830.63;;;3.62;100.00
49194;BME280;35029;50.804;12.866;2023-02-13T09:18:47;99833.41;;;3.73;100.00
49194;BME280;35029;50.804;12.866;2023-02-13T09:21:14;99836.38;;;3.82;100.00
49194;BME280;35029;50.804;12.866;2023-02-13T09:23:40;99824.47;;;3.76;100.00
49194;BME280;35029;50.804;12.866;2023-02-13T09:26:09;99845.75;;;3.86;100.00
49194;BME280;35029;50.804;12.866;2023-02-13T09:28:35;99847.84;;;3.94;100.00
49194;BME280;35029;50.804;12.866;2023-02-13T09:31:27;99839.69;;;3.98;100.00
49194;BME280;35029;50.804;12.866;2023-02-13T09:33:53;99844.94;;;3.98;100.00
49194;BME280;35029;50.804;12.866;2023-02-13T09:36:21;99847.94;;;3.92;100.00
49194;BME280;35029;50.804;12.866;2023-02-13T09:38:53;99827.88;;;3.78;100.00
49194;BME280;35029;50.804;12.866;2023-02-13T09:41:22;99849.53;;;3.95;100.00
49194;BME280;35029;50.804;12.866;2023-02-13T09:46:31;99845.31;;;3.92;100.00
49194;BME280;35029;50.804;12.866;2023-02-13T09:49:18;99850.19;;;3.98;100.00
49194;BME280;35029;50.804;12.866;2023-02-13T09:51:54;99853.84;;;3.96;100.00
49194;BME280;35029;50.804;12.866;2023-02-13T09:54:21;99849.75;;;4.04;100.00
49194;BME280;35029;50.804;12.866;2023-02-13T09:57:46;99850.78;;;4.02;100.00
49194;BME280;35029;50.804;12.866;2023-02-13T10:00:07;99851.75;;;4.01;100.00
49194;BME280;35029;50.804;12.866;2023-02-13T10:08:17;99851.44;;;4.18;100.00
49194;BME280;35029;50.804;12.866;2023-02-13T10:21:22;99853.50;;;4.53;100.00
49194;BME280;35029;50.804;12.866;2023-02-13T10:26:35;99850.88;;;4.66;100.00
49194;BME280;35029;50.804;12.866;2023-02-13T10:29:14;99855.47;;;4.76;100.00
49194;BME280;35029;50.804;12.866;2023-02-13T10:32:03;99826.59;;;4.63;100.00
49194;BME280;35029;50.804;12.866;2023-02-13T10:34:35;99839.50;;;4.66;100.00
49194;BME280;35029;50.804;12.866;2023-02-13T10:37:10;99826.56;;;4.76;100.00
49194;BME280;35029;50.804;12.866;2023-02-13T10:39:40;99836.97;;;4.90;100.00
49194;BME280;35029;50.804;12.866;2023-02-13T10:44:44;99834.69;;;4.85;100.00
49194;BME280;35029;50.804;12.866;2023-02-13T10:50:27;99841.31;;;4.65;100.00
49194;BME280;35029;50.804;12.866;2023-02-13T10:58:04;99826.81;;;4.85;100.00
49194;BME280;35029;50.804;12.866;2023-02-13T11:03:24;99819.81;;;5.34;100.00
49194;BME280;35029;50.804;12.866;2023-02-13T11:05:52;99814.38;;;5.24;100.00
49194;BME280;35029;50.804;12.866;2023-02-13T11:08:38;99814.13;;;5.40;100.00
49194;BME280;35029;50.804;12.866;2023-02-13T11:11:36;99808.94;;;5.28;100.00
49194;BME280;35029;50.804;12.866;2023-02-13T11:19:32;99804.53;;;5.39;100.00
49194;BME280;35029;50.804;12.866;2023-02-13T11:22:03;99807.25;;;5.51;100.00
49194;BME280;35029;50.804;12.866;2023-02-13T11:24:30;99796.25;;;5.33;100.00
49194;BME280;35029;50.804;12.866;2023-02-13T11:27:06;99800.31;;;5.50;100.00
49194;BME280;35029;50.804;12.866;2023-02-13T11:29:56;99792.88;;;5.79;100.00
49194;BME280;35029;50.804;12.866;2023-02-13T11:32:31;99784.16;;;6.03;100.00
49194;BME280;35029;50.804;12.866;2023-02-13T11:35:25;99782.16;;;5.93;100.00
49194;BME280;35029;50.804;12.866;2023-02-13T11:37:48;99780.59;;;6.15;100.00
49194;BME280;35029;50.804;12.866;2023-02-13T11:40:46;99772.94;;;5.88;100.00
49194;BME280;35029;50.804;12.866;2023-02-13T11:43:34;99768.00;;;5.83;100.00
49194;BME280;35029;50.804;12.866;2023-02-13T11:46:07;99771.50;;;6.19;100.00
49194;BME280;35029;50.804;12.866;2023-02-13T11:48:37;99772.94;;;6.23;100.00
49194;BME280;35029;50.804;12.866;2023-02-13T11:51:03;99773.19;;;6.32;100.00
49194;BME280;35029;50.804;12.866;2023-02-13T11:53:31;99768.53;;;6.47;100.00
49194;BME280;35029;50.804;12.866;2023-02-13T11:56:11;99774.75;;;6.68;100.00
49194;BME280;35029;50.804;12.866;2023-02-13T11:58:38;99764.81;;;6.60;100.00
49194;BME280;35029;50.804;12.866;2023-02-13T12:04:00;99759.03;;;6.89;100.00
49194;BME280;35029;50.804;12.866;2023-02-13T12:06:26;99746.94;;;6.87;100.00
49194;BME280;35029;50.804;12.866;2023-02-13T12:08:53;99751.13;;;6.89;100.00
49194;BME280;35029;50.804;12.866;2023-02-13T12:11:35;99765.16;;;6.90;100.00
49194;BME280;35029;50.804;12.866;2023-02-13T12:14:03;99761.16;;;7.07;100.00
49194;BME280;35029;50.804;12.866;2023-02-13T12:19:18;99728.78;;;7.16;100.00
49194;BME280;35029;50.804;12.866;2023-02-13T12:35:56;99741.72;;;7.19;100.00
49194;BME280;35029;50.804;12.866;2023-02-13T12:51:49;99728.81;;;6.93;100.00
49194;BME280;35029;50.804;12.866;2023-02-13T12:57:20;99717.06;;;6.98;99.64
49194;BME280;35029;50.804;12.866;2023-02-13T13:03:21;99723.97;;;7.21;99.94
49194;BME280;35029;50.804;12.866;2023-02-13T13:08:23;99717.59;;;7.24;100.00
49194;BME280;35029;50.804;12.866;2023-02-13T13:11:13;99722.91;;;7.45;100.00
49194;BME280;35029;50.804;12.866;2023-02-13T13:14:00;99718.13;;;7.39;100.00
49194;BME280;35029;50.804;12.866;2023-02-13T13:19:51;99717.72;;;7.22;100.00
49194;BME280;35029;50.804;12.866;2023-02-13T13:25:34;99718.09;;;7.18;100.00
49194;BME280;35029;50.804;12.866;2023-02-13T13:28:10;99719.78;;;7.07;100.00
49194;BME280;35029;50.804;12.866;2023-02-13T13:30:41;99724.03;;;6.99;100.00
49194;BME280;35029;50.804;12.866;2023-02-13T13:33:26;99722.72;;;6.93;100.00
49194;BME280;35029;50.804;12.866;2023-02-13T13:36:22;99716.84;;;6.89;100.00
49194;BME280;35029;50.804;12.866;2023-02-13T13:44:14;99716.28;;;6.40;100.00
49194;BME280;35029;50.804;12.866;2023-02-13T13:49:26;99715.34;;;6.30;100.00
49194;BME280;35029;50.804;12.866;2023-02-13T13:52:18;99712.72;;;6.30;100.00
49194;BME280;35029;50.804;12.866;2023-02-13T13:54:44;99709.25;;;6.07;100.00
49194;BME280;35029;50.804;12.866;2023-02-13T13:57:16;99713.72;;;5.82;100.00
49194;BME280;35029;50.804;12.866;2023-02-13T14:07:43;99712.31;;;5.54;100.00
49194;BME280;35029;50.804;12.866;2023-02-13T14:20:41;99709.78;;;5.17;100.00
49194;BME280;35029;50.804;12.866;2023-02-13T14:26:12;99687.81;;;4.94;100.00
49194;BME280;35029;50.804;12.866;2023-02-13T14:31:22;99708.41;;;5.11;100.00
49194;BME280;35029;50.804;12.866;2023-02-13T14:34:00;99697.00;;;5.23;100.00
49194;BME280;35029;50.804;12.866;2023-02-13T14:36:35;99695.78;;;5.16;100.00
49194;BME280;35029;50.804;12.866;2023-02-13T14:46:48;99698.13;;;5.08;100.00
49194;BME280;35029;50.804;12.866;2023-02-13T14:49:27;99702.56;;;5.07;100.00
49194;BME280;35029;50.804;12.866;2023-02-13T14:51:56;99711.50;;;5.05;100.00
49194;BME280;35029;50.804;12.866;2023-02-13T14:54:37;99708.09;;;5.16;100.00
49194;BME280;35029;50.804;12.866;2023-02-13T14:57:16;99716.00;;;5.16;100.00
49194;BME280;35029;50.804;12.866;2023-02-13T14:59:48;99709.50;;;5.08;100.00
49194;BME280;35029;50.804;12.866;2023-02-13T15:02:21;99700.13;;;5.04;100.00
49194;BME280;35029;50.804;12.866;2023-02-13T15:05:09;99702.75;;;5.04;100.00
49194;BME280;35029;50.804;12.866;2023-02-13T15:07:44;99679.06;;;4.93;100.00
49194;BME280;35029;50.804;12.866;2023-02-13T15:11:02;99691.66;;;5.01;100.00
49194;BME280;35029;50.804;12.866;2023-02-13T15:13:26;99686.41;;;5.01;100.00
49194;BME280;35029;50.804;12.866;2023-02-13T15:16:13;99695.00;;;5.03;100.00
49194;BME280;35029;50.804;12.866;2023-02-13T15:18:42;99692.19;;;4.93;100.00
49194;BME280;35029;50.804;12.866;2023-02-13T15:21:15;99663.97;;;4.84;100.00
49194;BME280;35029;50.804;12.866;2023-02-13T15:23:41;99691.16;;;4.96;100.00
49194;BME280;35029;50.804;12.866;2023-02-13T15:26:15;99694.44;;;4.86;100.00
49194;BME280;35029;50.804;12.866;2023-02-13T15:28:57;99702.00;;;4.91;100.00
49194;BME280;35029;50.804;12.866;2023-02-13T15:31:29;99697.28;;;4.83;100.00
49194;BME280;35029;50.804;12.866;2023-02-13T15:33:55;99696.34;;;4.84;100.00
49194;BME280;35029;50.804;12.866;2023-02-13T15:36:25;99691.28;;;4.81;100.00
49194;BME280;35029;50.804;12.866;2023-02-13T15:39:04;99684.50;;;4.79;100.00
49194;BME280;35029;50.804;12.866;2023-02-13T15:41:37;99688.19;;;4.76;100.00
49194;BME280;35029;50.804;12.866;2023-02-13T15:44:04;99691.00;;;4.73;100.00
49194;BME280;35029;50.804;12.866;2023-02-13T15:46:31;99690.81;;;4.63;100.00
49194;BME280;35029;50.804;12.866;2023-02-13T15:49:00;99685.69;;;4.62;100.00